Time;durP1;ratioP1;P1;durP2;ratioP2;P2;SDS_P1;SDS_P2;PMS_P1;PMS_P2;Temp;Humidity;BMP_temperature;BMP_pressure;BME280_temperature;BME280_humidity;BME280_pressure;Samples;Min_cycle;Max_cycle;Signal;HPM_P1;HPM_P2
2023/05/10 00:02:03;;;;;;;10.88;8.00;;;12.20;99.90;;;;;;5045395;28;20521;-71
2023/05/10 00:04:29;;;;;;;12.48;8.77;;;11.80;99.90;;;;;;5033768;28;20040;-70
2023/05/10 00:06:55;;;;;;;14.90;10.80;;;12.20;99.90;;;;;;5045094;28;20040;-71
2023/05/10 00:09:20;;;;;;;16.73;11.25;;;12.00;99.90;;;;;;5042967;28;20107;-70
2023/05/10 00:11:46;;;;;;;17.63;12.30;;;11.90;99.90;;;;;;5030337;28;20040;-70
2023/05/10 00:14:12;;;;;;;17.05;11.70;;;12.40;99.90;;;;;;5046297;28;20087;-71
2023/05/10 00:16:37;;;;;;;13.57;9.48;;;11.90;99.90;;;;;;5044801;28;20195;-70
2023/05/10 00:19:03;;;;;;;14.73;11.05;;;12.20;99.90;;;;;;5041984;28;20041;-70
2023/05/10 00:21:29;;;;;;;13.68;9.20;;;12.00;99.90;;;;;;5027797;28;20032;-71
2023/05/10 00:23:55;;;;;;;13.10;9.75;;;12.40;99.90;;;;;;5040554;28;20494;-70
2023/05/10 00:26:21;;;;;;;16.05;11.70;;;11.90;99.90;;;;;;5038695;28;20068;-70
2023/05/10 00:28:46;;;;;;;13.07;9.93;;;11.70;99.90;;;;;;5042947;28;20048;-70
2023/05/10 00:31:12;;;;;;;13.90;10.30;;;12.40;99.90;;;;;;5040283;28;20037;-70
2023/05/10 00:33:37;;;;;;;13.07;9.65;;;12.10;99.90;;;;;;5046282;28;20039;-70
2023/05/10 00:36:03;;;;;;;11.75;8.00;;;12.20;99.90;;;;;;5044951;28;20087;-70
2023/05/10 00:38:29;;;;;;;12.32;8.90;;;11.90;99.90;;;;;;5043854;28;20029;-69
2023/05/10 00:40:54;;;;;;;10.35;6.93;;;12.10;99.90;;;;;;5049238;28;20040;-70
2023/05/10 00:43:20;;;;;;;11.70;8.10;;;12.30;99.90;;;;;;5033950;28;20160;-70
2023/05/10 00:45:46;;;;;;;9.68;6.65;;;12.30;99.90;;;;;;5052565;28;20041;-70
2023/05/10 00:48:12;;;;;;;9.93;6.13;;;11.90;99.90;;;;;;5045140;28;20033;-70
2023/05/10 00:50:39;;;;;;;11.00;6.88;;;12.40;99.90;;;;;;5048855;28;20041;-70
2023/05/10 00:53:05;;;;;;;10.93;6.80;;;12.20;99.90;;;;;;5046197;28;20052;-70
2023/05/10 00:55:31;;;;;;;12.35;8.05;;;12.30;99.90;;;;;;5045287;28;21570;-70
2023/05/10 00:57:57;;;;;;;19.10;9.80;;;11.90;99.90;;;;;;5038887;28;20061;-70
2023/05/10 01:00:23;;;;;;;23.13;13.23;;;12.20;99.90;;;;;;5046738;28;20029;-70
2023/05/10 01:02:49;;;;;;;25.08;15.25;;;12.00;99.90;;;;;;5041108;28;20048;-70
2023/05/10 01:05:15;;;;;;;26.00;14.55;;;12.10;99.90;;;;;;5042849;28;20033;-70
2023/05/10 01:07:40;;;;;;;29.77;17.80;;;12.30;99.90;;;;;;5040873;28;20079;-70
2023/05/10 01:10:07;;;;;;;32.38;18.23;;;12.30;99.90;;;;;;5058024;28;20111;-69
2023/05/10 01:12:40;;;;;;;44.78;22.85;;;12.40;99.90;;;;;;5039705;28;20108;-70
2023/05/10 01:15:09;;;;;;;45.95;20.92;;;12.20;99.90;;;;;;5033081;28;20293;-70
2023/05/10 01:17:40;;;;;;;43.40;18.75;;;11.80;99.90;;;;;;5042389;28;20060;-69
2023/05/10 01:20:08;;;;;;;37.25;18.52;;;11.90;99.90;;;;;;5035266;28;20036;-70
2023/05/10 01:22:49;;;;;;;35.88;18.42;;;11.50;99.90;;;;;;5032174;28;20045;-70
2023/05/10 01:25:15;;;;;;;39.17;19.45;;;12.00;99.90;;;;;;5039893;28;20038;-70
2023/05/10 01:27:52;;;;;;;67.45;25.13;;;12.10;99.90;;;;;;5033506;28;20048;-69
2023/05/10 01:30:56;;;;;;;36.03;14.57;;;11.80;99.90;;;;;;5026719;28;20045;-69
2023/05/10 01:33:30;;;;;;;38.78;17.38;;;11.80;99.90;;;;;;5040779;28;20041;-70
2023/05/10 01:36:02;;;;;;;56.43;22.27;;;12.20;99.90;;;;;;5037694;28;20034;-69
2023/05/10 01:38:58;;;;;;;61.80;22.17;;;11.90;99.90;;;;;;5044341;28;20108;-70
2023/05/10 01:41:47;;;;;;;49.03;21.33;;;11.60;99.90;;;;;;5017181;28;20114;-70
2023/05/10 01:44:47;;;;;;;53.17;22.40;;;11.30;99.90;;;;;;5049096;28;20043;-69
2023/05/10 01:47:23;;;;;;;64.43;24.27;;;11.90;99.90;;;;;;5044247;28;20048;-70
2023/05/10 01:49:56;;;;;;;50.53;21.77;;;11.50;99.90;;;;;;5041730;28;20043;-69
2023/05/10 01:52:30;;;;;;;57.70;22.75;;;11.80;99.90;;;;;;5040242;28;20033;-69
2023/05/10 01:55:05;;;;;;;40.90;20.67;;;12.20;99.90;;;;;;5045307;28;20037;-69
2023/05/10 01:57:36;;;;;;;43.28;20.42;;;11.70;99.90;;;;;;5034004;28;20042;-70
2023/05/10 02:00:04;;;;;;;40.20;19.65;;;12.10;99.90;;;;;;5045578;28;20121;-70
2023/05/10 02:02:35;;;;;;;39.13;21.73;;;11.80;99.90;;;;;;5047364;28;20487;-69
2023/05/10 02:05:02;;;;;;;38.13;21.45;;;11.60;99.90;;;;;;5043708;28;20063;-70
2023/05/10 02:07:28;;;;;;;36.58;21.00;;;12.20;99.90;;;;;;5050945;28;20042;-70
2023/05/10 02:09:55;;;;;;;42.55;23.55;;;11.60;99.90;;;;;;5037378;28;20535;-69
2023/05/10 02:12:23;;;;;;;32.35;20.55;;;12.50;99.90;;;;;;5044501;28;20065;-69
2023/05/10 02:14:50;;;;;;;25.25;16.05;;;12.20;99.90;;;;;;5031162;28;20548;-69
2023/05/10 02:17:17;;;;;;;25.33;17.52;;;12.10;99.90;;;;;;5045792;28;20036;-69
2023/05/10 02:19:43;;;;;;;23.92;15.88;;;12.10;99.90;;;;;;5034564;28;20459;-69
2023/05/10 02:22:10;;;;;;;23.73;15.65;;;11.80;99.90;;;;;;5038372;28;20036;-69
2023/05/10 02:24:36;;;;;;;24.05;16.60;;;11.70;99.90;;;;;;5032229;28;20045;-69
2023/05/10 02:27:04;;;;;;;21.52;14.02;;;12.10;99.90;;;;;;5043699;28;20033;-69
2023/05/10 02:29:32;;;;;;;17.80;12.00;;;11.80;99.90;;;;;;5036752;28;20041;-69
2023/05/10 02:31:58;;;;;;;15.80;10.48;;;;;;;;;;5051106;28;20033;-70
2023/05/10 02:34:27;;;;;;;14.00;9.63;;;12.00;1.00;;;;;;5047288;28;20124;-69
2023/05/10 02:36:54;;;;;;;12.73;8.85;;;12.20;1.00;;;;;;5046167;28;20093;-69
2023/05/10 02:39:22;;;;;;;9.98;6.68;;;11.60;1.00;;;;;;5056333;28;20040;-69
2023/05/10 02:41:50;;;;;;;7.03;4.30;;;11.80;1.00;;;;;;5041001;28;20032;-69
2023/05/10 02:44:19;;;;;;;7.30;4.22;;;11.60;1.00;;;;;;5035175;28;20438;-69
2023/05/10 02:46:45;;;;;;;7.72;4.75;;;12.20;1.00;;;;;;5042107;28;20037;-69
2023/05/10 02:49:11;;;;;;;8.02;3.72;;;11.60;1.00;;;;;;5037470;28;20035;-69
2023/05/10 02:51:41;;;;;;;7.40;4.75;;;12.20;1.00;;;;;;5042088;28;20068;-69
2023/05/10 02:54:29;;;;;;;6.38;3.92;;;12.40;1.00;;;;;;5041291;28;20094;-69
2023/05/10 02:57:00;;;;;;;5.97;3.40;;;11.80;1.00;;;;;;5040725;28;20108;-69
2023/05/10 02:59:26;;;;;;;5.38;3.15;;;11.80;1.00;;;;;;5040837;28;20614;-69
2023/05/10 03:01:52;;;;;;;5.60;3.35;;;12.70;1.00;;;;;;5050533;28;20124;-69
2023/05/10 03:04:17;;;;;;;5.47;3.17;;;12.20;1.00;;;;;;5038978;28;20033;-69
2023/05/10 03:06:44;;;;;;;5.95;3.67;;;12.00;1.00;;;;;;5048086;28;20521;-69
2023/05/10 03:09:11;;;;;;;6.55;3.83;;;12.20;1.00;;;;;;5039810;28;20506;-69
2023/05/10 03:11:51;;;;;;;6.45;4.20;;;11.60;1.00;;;;;;5045231;28;20099;-69
2023/05/10 03:14:51;;;;;;;6.95;3.97;;;12.10;1.00;;;;;;5047893;28;20044;-69
2023/05/10 03:17:30;;;;;;;6.40;3.80;;;11.90;1.00;;;;;;5031073;28;20037;-69
2023/05/10 03:19:57;;;;;;;6.35;4.00;;;;;;;;;;5044245;28;20078;-69
2023/05/10 03:22:44;;;;;;;7.95;4.60;;;12.00;1.00;;;;;;5016444;28;20076;-69
2023/05/10 03:25:11;;;;;;;7.07;4.85;;;11.50;1.00;;;;;;5042718;28;20060;-70
2023/05/10 03:27:40;;;;;;;7.63;4.63;;;11.60;1.00;;;;;;5042096;28;20414;-70
2023/05/10 03:30:08;;;;;;;7.00;4.43;;;12.20;1.00;;;;;;5042970;28;20080;-68
2023/05/10 03:32:34;;;;;;;6.85;4.05;;;12.20;1.00;;;;;;5043883;28;20052;-68
2023/05/10 03:35:00;;;;;;;11.88;7.15;;;12.30;1.00;;;;;;5039417;28;20039;-68
2023/05/10 03:37:25;;;;;;;11.35;6.57;;;12.30;1.00;;;;;;5014242;28;20124;-68
2023/05/10 03:39:51;;;;;;;10.65;6.88;;;11.60;1.00;;;;;;5054546;28;20036;-68
2023/05/10 03:42:17;;;;;;;13.10;8.57;;;12.20;1.00;;;;;;5046900;28;20029;-68
2023/05/10 03:44:43;;;;;;;13.43;8.55;;;12.20;1.00;;;;;;5028866;28;20090;-68
2023/05/10 03:47:09;;;;;;;16.48;10.00;;;11.90;1.00;;;;;;5044026;28;20119;-68
2023/05/10 03:49:34;;;;;;;16.65;10.18;;;11.80;1.00;;;;;;5036061;28;20049;-68
2023/05/10 03:52:00;;;;;;;18.73;11.20;;;11.70;1.00;;;;;;5037326;28;20647;-68
2023/05/10 03:54:26;;;;;;;19.20;12.05;;;12.00;1.00;;;;;;5039032;28;20494;-69
2023/05/10 03:56:51;;;;;;;18.75;11.93;;;12.40;1.00;;;;;;5027533;28;20486;-69
2023/05/10 03:59:17;;;;;;;20.30;12.50;;;12.20;1.00;;;;;;5042392;28;20187;-69
2023/05/10 04:01:42;;;;;;;18.10;12.48;;;12.10;1.00;;;;;;5048537;28;20037;-69
2023/05/10 04:04:08;;;;;;;21.48;13.48;;;12.00;1.00;;;;;;5019065;28;20135;-69
2023/05/10 04:06:33;;;;;;;17.55;12.27;;;11.70;1.00;;;;;;5060702;28;20166;-69
2023/05/10 04:09:01;;;;;;;13.07;9.23;;;11.90;1.00;;;;;;5039722;28;20058;-69
2023/05/10 04:11:27;;;;;;;13.23;9.55;;;12.30;1.00;;;;;;5041623;28;20044;-69
2023/05/10 04:13:53;;;;;;;12.35;7.95;;;12.10;1.00;;;;;;5019973;28;20271;-69
2023/05/10 04:16:19;;;;;;;9.02;5.38;;;12.50;1.00;;;;;;5030404;28;20116;-69
2023/05/10 04:18:45;;;;;;;7.70;5.00;;;11.70;1.00;;;;;;5043472;28;20025;-69
2023/05/10 04:21:14;;;;;;;6.00;3.80;;;12.40;1.00;;;;;;5048202;28;20044;-68
2023/05/10 04:23:40;;;;;;;6.70;4.00;;;11.60;1.00;;;;;;5047574;28;20032;-69
2023/05/10 04:26:06;;;;;;;6.85;3.97;;;11.60;1.00;;;;;;5038859;28;20037;-69
2023/05/10 04:28:32;;;;;;;5.57;3.10;;;11.90;1.00;;;;;;5034138;28;20424;-69
2023/05/10 04:31:09;;;;;;;5.85;3.10;;;11.70;1.00;;;;;;5048236;28;20033;-70
2023/05/10 04:33:35;;;;;;;6.30;3.90;;;11.80;1.00;;;;;;5046508;28;20041;-69
2023/05/10 04:36:01;;;;;;;5.72;3.42;;;11.60;1.00;;;;;;5043152;28;20523;-69
2023/05/10 04:38:27;;;;;;;7.13;4.40;;;11.90;1.00;;;;;;5037707;28;20041;-69
2023/05/10 04:40:53;;;;;;;7.25;4.40;;;11.40;1.00;;;;;;5048868;28;20060;-69
2023/05/10 04:43:19;;;;;;;7.40;4.40;;;12.20;1.00;;;;;;5042579;28;20495;-70
2023/05/10 04:45:45;;;;;;;7.57;5.18;;;11.70;1.00;;;;;;5042448;28;20056;-70
2023/05/10 04:48:11;;;;;;;9.73;6.10;;;11.60;1.00;;;;;;5043237;28;20118;-69
2023/05/10 04:50:36;;;;;;;11.40;6.60;;;12.50;1.00;;;;;;5039518;28;20045;-69
2023/05/10 04:53:02;;;;;;;14.70;7.05;;;11.90;1.00;;;;;;5043285;28;20043;-69
2023/05/10 04:55:27;;;;;;;11.45;6.50;;;12.10;1.00;;;;;;5041763;28;20029;-69
2023/05/10 04:57:56;;;;;;;12.23;8.00;;;11.90;1.00;;;;;;5044794;28;20032;-69
2023/05/10 05:00:22;;;;;;;13.70;9.23;;;12.20;1.00;;;;;;5035896;28;20044;-69
2023/05/10 05:02:48;;;;;;;17.25;11.30;;;11.60;1.00;;;;;;5029919;28;20032;-69
2023/05/10 05:05:13;;;;;;;26.13;14.00;;;11.90;1.00;;;;;;5036251;28;20033;-68
2023/05/10 05:07:39;;;;;;;19.60;13.05;;;12.10;1.00;;;;;;5052042;28;20128;-69
2023/05/10 05:10:08;;;;;;;22.77;14.88;;;11.40;1.00;;;;;;5050716;28;20079;-69
2023/05/10 05:12:34;;;;;;;29.85;16.73;;;12.00;1.00;;;;;;5051780;28;20049;-69
2023/05/10 05:15:02;;;;;;;32.72;17.45;;;11.80;1.00;;;;;;5029113;28;20044;-69
2023/05/10 05:17:29;;;;;;;20.08;12.93;;;11.40;1.00;;;;;;5048023;28;20450;-69
2023/05/10 05:19:55;;;;;;;24.83;13.90;;;11.70;1.00;;;;;;5035013;28;20049;-69
2023/05/10 05:22:27;;;;;;;21.40;13.18;;;11.70;1.00;;;;;;5033199;28;20402;-69
2023/05/10 05:24:53;;;;;;;17.35;11.05;;;11.70;1.00;;;;;;5051134;28;20033;-69
2023/05/10 05:27:22;;;;;;;17.95;11.25;;;11.70;1.00;;;;;;5050754;28;20060;-69
2023/05/10 05:29:47;;;;;;;19.13;11.68;;;11.90;1.00;;;;;;5053569;28;20102;-69
2023/05/10 05:32:13;;;;;;;18.27;10.57;;;11.60;1.00;;;;;;5045189;28;20112;-69
2023/05/10 05:34:39;;;;;;;13.23;7.90;;;12.20;1.00;;;;;;5051186;28;20041;-69
2023/05/10 05:37:04;;;;;;;22.02;7.97;;;11.80;1.00;;;;;;5051340;28;20112;-69
2023/05/10 05:39:30;;;;;;;15.65;8.55;;;12.20;1.00;;;;;;5060158;28;20036;-68
2023/05/10 05:41:55;;;;;;;13.40;7.97;;;12.10;1.00;;;;;;5055395;28;20040;-68
2023/05/10 05:44:21;;;;;;;13.25;7.75;;;11.60;1.00;;;;;;5055156;28;20041;-69
2023/05/10 05:46:46;;;;;;;14.00;8.15;;;11.50;1.00;;;;;;5042798;28;20041;-69
2023/05/10 05:49:12;;;;;;;10.88;6.50;;;11.80;1.00;;;;;;5052857;28;20040;-69
2023/05/10 05:51:38;;;;;;;14.25;7.82;;;12.20;1.00;;;;;;5055549;28;20040;-69
2023/05/10 05:54:04;;;;;;;14.18;6.68;;;12.10;1.00;;;;;;5058326;28;20493;-69
2023/05/10 05:56:30;;;;;;;11.30;6.15;;;11.70;1.00;;;;;;5042044;28;20088;-69
2023/05/10 05:58:55;;;;;;;12.38;6.70;;;12.20;1.00;;;;;;5054189;28;20032;-69
2023/05/10 06:01:21;;;;;;;12.38;6.55;;;11.60;1.00;;;;;;5054524;28;20040;-69
2023/05/10 06:03:46;;;;;;;11.60;6.35;;;11.70;1.00;;;;;;5023881;28;20380;-69
2023/05/10 06:06:12;;;;;;;10.13;5.38;;;12.30;1.00;;;;;;5042950;28;20120;-67
2023/05/10 06:08:38;;;;;;;10.18;5.63;;;12.40;1.00;;;;;;5039279;28;20063;-69
2023/05/10 06:11:04;;;;;;;10.00;5.53;;;12.30;1.00;;;;;;5045580;28;20041;-71
2023/05/10 06:13:32;;;;;;;9.25;5.25;;;12.20;1.00;;;;;;5041642;28;20045;-71
2023/05/10 06:16:02;;;;;;;10.38;5.35;;;12.40;1.00;;;;;;5049400;28;20041;-70
2023/05/10 06:18:27;;;;;;;7.65;4.70;;;11.70;1.00;;;;;;5049733;28;20103;-70
2023/05/10 06:20:53;;;;;;;8.13;4.30;;;12.30;1.00;;;;;;5039690;28;20049;-70
2023/05/10 06:23:19;;;;;;;8.45;4.40;;;11.60;1.00;;;;;;5032558;28;20109;-70
2023/05/10 06:25:45;;;;;;;8.70;4.57;;;12.40;1.00;;;;;;5046447;28;20072;-68
2023/05/10 06:28:10;;;;;;;8.68;4.65;;;11.90;1.00;;;;;;5042789;28;20032;-68
2023/05/10 06:30:36;;;;;;;7.30;3.90;;;12.20;1.00;;;;;;5046233;28;20045;-70
2023/05/10 06:33:02;;;;;;;8.70;4.60;;;11.80;1.00;;;;;;5027797;28;20124;-70
2023/05/10 06:35:28;;;;;;;9.57;4.90;;;11.90;1.00;;;;;;5041442;28;20121;-69
2023/05/10 06:37:54;;;;;;;8.43;4.22;;;11.70;1.00;;;;;;5038640;28;20052;-68
2023/05/10 06:40:20;;;;;;;7.63;3.78;;;12.30;1.00;;;;;;5047916;28;20033;-68
2023/05/10 06:42:47;;;;;;;8.55;4.05;;;11.90;1.00;;;;;;5047207;28;20095;-68
2023/05/10 06:45:14;;;;;;;8.45;4.30;;;12.60;1.00;;;;;;5039639;28;20444;-68
2023/05/10 06:47:40;;;;;;;9.82;5.18;;;12.30;1.00;;;;;;5042208;28;20053;-66
2023/05/10 06:50:07;;;;;;;7.85;4.15;;;12.40;1.00;;;;;;5043107;28;20391;-68
2023/05/10 06:52:32;;;;;;;9.07;4.82;;;12.10;1.00;;;;;;5036812;28;20502;-69
2023/05/10 06:54:58;;;;;;;10.35;4.82;;;11.80;1.00;;;;;;5041224;28;20086;-68
2023/05/10 06:57:24;;;;;;;8.98;4.32;;;12.80;1.00;;;;;;5041474;28;20038;-72
2023/05/10 06:59:50;;;;;;;9.90;5.13;;;12.50;1.00;;;;;;5032299;28;20626;-70
2023/05/10 07:02:16;;;;;;;8.55;4.43;;;12.30;1.00;;;;;;5036415;28;20033;-69
2023/05/10 07:04:41;;;;;;;9.55;4.82;;;12.60;1.00;;;;;;5041094;28;20508;-67
2023/05/10 07:07:08;;;;;;;10.65;4.60;;;12.50;1.00;;;;;;5046251;28;20127;-69
2023/05/10 07:09:33;;;;;;;10.25;5.22;;;12.50;1.00;;;;;;5045204;28;20040;-68
2023/05/10 07:11:59;;;;;;;9.20;4.57;;;12.40;1.00;;;;;;5035001;28;20112;-69
2023/05/10 07:14:25;;;;;;;7.70;3.85;;;12.40;1.00;;;;;;5040331;28;20103;-68
2023/05/10 07:16:50;;;;;;;8.82;3.90;;;12.70;1.00;;;;;;5037842;28;20041;-69
2023/05/10 07:19:16;;;;;;;6.93;3.50;;;12.50;1.00;;;;;;5042324;28;20029;-69
2023/05/10 07:21:43;;;;;;;8.02;3.92;;;12.20;1.00;;;;;;5040477;28;20124;-70
2023/05/10 07:24:09;;;;;;;9.98;4.43;;;12.20;1.00;;;;;;5041169;28;20049;-69
2023/05/10 07:26:34;;;;;;;8.98;4.50;;;12.30;1.00;;;;;;5041438;28;20077;-69
2023/05/10 07:29:00;;;;;;;10.80;4.68;;;12.60;1.00;;;;;;5028215;28;20128;-68
2023/05/10 07:31:26;;;;;;;8.77;4.75;;;12.30;1.00;;;;;;5042556;28;20507;-68
2023/05/10 07:33:52;;;;;;;9.48;5.45;;;12.50;1.00;;;;;;5035577;28;20047;-67
2023/05/10 07:36:18;;;;;;;10.88;6.18;;;12.90;1.00;;;;;;5041952;28;20032;-69
2023/05/10 07:38:43;;;;;;;11.05;6.45;;;12.70;1.00;;;;;;5037268;28;20053;-70
2023/05/10 07:41:09;;;;;;;10.20;5.50;;;12.70;1.00;;;;;;5040569;28;20045;-67
2023/05/10 07:43:35;;;;;;;9.32;4.97;;;12.70;1.00;;;;;;5039521;28;20041;-68
2023/05/10 07:46:00;;;;;;;12.48;5.65;;;12.80;1.00;;;;;;5039675;28;20087;-68
2023/05/10 07:48:26;;;;;;;11.32;5.53;;;12.80;1.00;;;;;;5043748;28;20039;-71
2023/05/10 07:50:52;;;;;;;9.88;5.03;;;12.60;1.00;;;;;;5034531;28;20088;-72
2023/05/10 07:53:18;;;;;;;10.55;5.28;;;12.30;1.00;;;;;;5039321;28;20041;-72
2023/05/10 07:55:49;;;;;;;9.98;5.40;;;12.60;1.00;;;;;;5043900;28;20041;-71
2023/05/10 07:58:15;;;;;;;10.73;5.88;;;12.70;1.00;;;;;;5031445;28;20060;-70
2023/05/10 08:00:41;;;;;;;10.35;5.65;;;12.70;1.00;;;;;;5035543;28;20060;-67
2023/05/10 08:03:06;;;;;;;10.55;5.50;;;12.70;1.00;;;;;;5044080;28;20056;-69
2023/05/10 08:05:32;;;;;;;10.52;5.68;;;12.80;1.00;;;;;;5043571;28;20132;-67
2023/05/10 08:07:59;;;;;;;10.13;6.00;;;12.60;1.00;;;;;;5042178;28;20083;-71
2023/05/10 08:10:25;;;;;;;10.98;5.43;;;12.90;1.00;;;;;;5042840;28;20502;-71
2023/05/10 08:12:51;;;;;;;12.85;6.63;;;12.90;1.00;;;;;;5041966;28;20064;-70
2023/05/10 08:15:16;;;;;;;13.43;6.45;;;12.60;1.00;;;;;;5035456;28;20029;-71
2023/05/10 08:17:42;;;;;;;12.50;5.50;;;12.70;1.00;;;;;;5046158;28;20119;-71
2023/05/10 08:20:08;;;;;;;10.55;5.95;;;13.20;1.00;;;;;;5047970;28;20037;-71
2023/05/10 08:22:34;;;;;;;11.60;6.43;;;13.30;1.00;;;;;;5042117;28;20041;-68
2023/05/10 08:25:00;;;;;;;11.00;5.20;;;13.40;1.00;;;;;;5038170;28;20058;-68
2023/05/10 08:27:25;;;;;;;9.02;4.95;;;13.10;1.00;;;;;;5046160;28;20045;-68
2023/05/10 08:29:51;;;;;;;9.23;5.10;;;12.90;1.00;;;;;;5044179;28;20454;-68
2023/05/10 08:32:17;;;;;;;9.77;5.07;;;12.80;1.00;;;;;;5039343;28;20047;-70
2023/05/10 08:34:44;;;;;;;12.13;5.45;;;;;;;;;;5035683;28;20499;-69
2023/05/10 08:37:12;;;;;;;10.52;5.13;;;13.20;99.90;;;;;;5035664;28;20133;-68
2023/05/10 08:39:38;;;;;;;10.32;5.03;;;13.30;1.00;;;;;;5041319;28;20365;-68
2023/05/10 08:42:05;;;;;;;8.57;4.50;;;12.90;99.90;;;;;;5040504;28;20033;-69
2023/05/10 08:44:38;;;;;;;8.57;4.75;;;13.10;1.00;;;;;;5040087;28;20140;-70
2023/05/10 08:47:08;;;;;;;9.70;5.22;;;13.50;99.90;;;;;;5039105;28;20391;-70
2023/05/10 08:49:34;;;;;;;9.77;5.20;;;13.80;1.00;;;;;;5050664;28;20064;-69
2023/05/10 08:52:03;;;;;;;10.55;6.18;;;13.70;99.90;;;;;;5047261;28;20486;-69
2023/05/10 08:54:31;;;;;;;12.40;6.40;;;13.80;99.90;;;;;;5044540;28;20499;-69
2023/05/10 08:56:57;;;;;;;11.65;6.07;;;13.50;99.90;;;;;;5043745;28;20032;-70
2023/05/10 08:59:22;;;;;;;11.02;6.93;;;13.70;99.90;;;;;;5044993;28;20516;-68
2023/05/10 09:01:50;;;;;;;11.55;6.85;;;13.70;99.90;;;;;;5036489;28;20033;-70
2023/05/10 09:04:16;;;;;;;12.35;7.40;;;13.70;99.90;;;;;;5039241;28;20123;-69
2023/05/10 09:06:42;;;;;;;13.90;8.20;;;14.00;99.90;;;;;;5047859;28;20508;-71
2023/05/10 09:09:08;;;;;;;12.15;7.50;;;13.50;99.90;;;;;;5023567;28;20120;-67
2023/05/10 09:11:34;;;;;;;9.57;6.60;;;13.70;99.90;;;;;;5046515;28;20116;-69
2023/05/10 09:14:01;;;;;;;12.15;6.80;;;14.10;99.90;;;;;;5039492;28;20092;-68
2023/05/10 09:16:27;;;;;;;12.43;7.13;;;13.70;99.90;;;;;;5040775;28;20083;-68
2023/05/10 09:18:52;;;;;;;12.90;7.38;;;13.80;99.90;;;;;;5042216;28;20041;-68
2023/05/10 09:21:20;;;;;;;11.90;7.50;;;14.20;99.90;;;;;;5052516;28;20450;-67
2023/05/10 09:23:46;;;;;;;14.82;7.93;;;14.20;99.90;;;;;;5042020;28;20041;-68
2023/05/10 09:26:12;;;;;;;15.90;9.43;;;14.10;99.90;;;;;;5050373;28;20059;-69
2023/05/10 09:28:59;;;;;;;13.85;8.80;;;13.50;99.90;;;;;;5050672;28;20045;-67
2023/05/10 09:31:42;;;;;;;12.82;7.57;;;14.00;99.90;;;;;;5054974;28;20041;-67
2023/05/10 09:34:08;;;;;;;13.07;7.35;;;14.10;99.90;;;;;;5044313;28;20025;-67
2023/05/10 09:36:33;;;;;;;11.80;6.45;;;14.60;99.90;;;;;;5037744;28;20531;-67
2023/05/10 09:38:59;;;;;;;13.05;7.57;;;13.90;99.90;;;;;;5045872;28;20482;-67
2023/05/10 09:41:25;;;;;;;11.32;7.00;;;13.30;99.90;;;;;;5045019;28;20505;-67
2023/05/10 09:43:56;;;;;;;12.50;6.20;;;13.30;99.90;;;;;;5047130;28;20498;-68
2023/05/10 09:46:22;;;;;;;11.57;6.70;;;13.50;99.90;;;;;;5045309;28;20124;-68
2023/05/10 09:48:48;;;;;;;10.55;6.30;;;13.30;39.60;;;;;;5034624;28;20083;-67
2023/05/10 09:51:21;;;;;;;10.35;6.32;;;13.70;23.80;;;;;;5047576;28;20033;-69
2023/05/10 09:53:47;;;;;;;13.23;6.60;;;14.10;70.10;;;;;;5047759;28;20037;-68
2023/05/10 09:56:14;;;;;;;12.40;6.57;;;13.50;45.30;;;;;;5049113;28;20063;-68
2023/05/10 09:58:40;;;;;;;13.30;6.38;;;13.70;93.40;;;;;;5027444;28;20084;-69
2023/05/10 10:01:11;;;;;;;9.95;5.85;;;13.90;84.10;;;;;;5050494;28;20040;-69
2023/05/10 10:03:42;;;;;;;10.60;6.13;;;14.20;1.00;;;;;;5050432;28;20076;-67
2023/05/10 10:06:08;;;;;;;11.82;6.75;;;13.80;99.90;;;;;;5030044;28;20103;-68
2023/05/10 10:08:34;;;;;;;11.77;6.80;;;13.70;99.90;;;;;;5045263;28;20410;-67
2023/05/10 10:11:01;;;;;;;15.27;7.57;;;14.20;99.90;;;;;;5046881;28;20116;-67
2023/05/10 10:13:26;;;;;;;10.55;6.60;;;14.30;99.90;;;;;;5044639;28;20469;-67
2023/05/10 10:15:54;;;;;;;12.20;7.22;;;14.50;99.90;;;;;;5040211;28;20073;-68
2023/05/10 10:18:26;;;;;;;11.45;6.07;;;14.80;99.90;;;;;;5046221;28;20040;-68
2023/05/10 10:20:54;;;;;;;11.25;6.72;;;15.40;99.90;;;;;;5047260;28;20091;-68
2023/05/10 10:23:19;;;;;;;10.73;6.65;;;14.40;1.60;;;;;;5054384;28;20405;-68
2023/05/10 10:25:48;;;;;;;14.02;7.55;;;14.60;1.00;;;;;;5039874;28;20037;-68
2023/05/10 10:28:26;;;;;;;12.52;7.63;;;14.60;1.00;;;;;;5048020;28;20045;-68
2023/05/10 10:30:55;;;;;;;11.32;5.97;;;15.00;1.00;;;;;;5045374;28;20097;-68
2023/05/10 10:33:27;;;;;;;11.75;6.93;;;;;;;;;;5037750;28;20044;-68
2023/05/10 10:35:53;;;;;;;10.65;6.43;;;14.80;1.00;;;;;;5033311;28;20038;-68
2023/05/10 10:38:20;;;;;;;8.68;5.53;;;14.80;1.00;;;;;;5042581;28;20108;-68
2023/05/10 10:40:45;;;;;;;11.32;6.60;;;14.90;99.90;;;;;;5050334;28;20502;-68
2023/05/10 10:43:25;;;;;;;12.45;6.90;;;15.70;99.90;;;;;;5040614;28;20178;-68
2023/05/10 10:46:17;;;;;;;11.25;6.68;;;15.70;99.90;;;;;;5057657;28;20041;-68
2023/05/10 10:49:07;;;;;;;11.73;7.13;;;14.70;99.90;;;;;;5039462;28;20041;-68
2023/05/10 10:51:37;;;;;;;10.13;6.15;;;15.70;99.90;;;;;;5026409;28;20045;-68
2023/05/10 10:54:12;;;;;;;11.25;6.28;;;15.40;99.90;;;;;;5035909;28;20196;-67
2023/05/10 10:56:38;;;;;;;9.77;6.15;;;15.30;99.90;;;;;;5040851;28;20037;-68
2023/05/10 10:59:03;;;;;;;8.23;5.05;;;15.70;91.00;;;;;;5040489;28;20147;-68
2023/05/10 11:01:36;;;;;;;9.90;6.47;;;16.00;1.00;;;;;;5042754;28;20037;-68
2023/05/10 11:04:05;;;;;;;14.10;7.43;;;15.80;1.00;;;;;;5042270;28;20079;-68
2023/05/10 11:06:32;;;;;;;9.88;6.22;;;15.60;1.00;;;;;;5039114;28;20041;-68
2023/05/10 11:08:58;;;;;;;9.63;6.15;;;16.50;1.00;;;;;;5052539;28;20045;-68
2023/05/10 11:11:23;;;;;;;11.13;7.13;;;15.60;1.00;;;;;;5055775;28;20037;-68
2023/05/10 11:13:49;;;;;;;10.27;5.45;;;15.60;1.00;;;;;;5048902;28;20044;-68
2023/05/10 11:16:23;;;;;;;9.35;5.43;;;15.60;99.90;;;;;;5046239;28;20555;-67
2023/05/10 11:18:59;;;;;;;8.80;4.90;;;15.80;99.90;;;;;;5048999;28;20049;-67
2023/05/10 11:21:25;;;;;;;8.75;5.55;;;15.60;99.90;;;;;;5039993;28;20039;-66
2023/05/10 11:23:59;;;;;;;8.93;5.72;;;16.40;99.90;;;;;;5039872;28;20095;-67
2023/05/10 11:26:26;;;;;;;13.77;6.63;;;15.60;99.90;;;;;;5043330;28;20082;-67
2023/05/10 11:28:58;;;;;;;11.95;6.00;;;15.70;99.90;;;;;;5037551;28;20492;-66
2023/05/10 11:31:26;;;;;;;8.95;5.97;;;16.30;99.90;;;;;;5042004;28;20078;-66
2023/05/10 11:33:57;;;;;;;12.45;6.57;;;15.70;99.90;;;;;;5046748;28;20056;-66
2023/05/10 11:36:53;;;;;;;8.98;5.93;;;16.20;97.50;;;;;;5036231;28;20115;-67
2023/05/10 11:39:19;;;;;;;11.05;6.45;;;16.10;1.00;;;;;;5039494;28;20044;-68
2023/05/10 11:41:48;;;;;;;9.75;5.60;;;15.80;90.00;;;;;;5041476;28;20036;-68
2023/05/10 11:44:14;;;;;;;9.07;4.97;;;15.50;94.90;;;;;;5042176;28;20057;-67
2023/05/10 11:46:40;;;;;;;9.23;5.20;;;16.10;99.90;;;;;;5049881;28;20041;-67
2023/05/10 11:49:07;;;;;;;9.10;5.10;;;16.00;1.00;;;;;;5040624;28;20524;-67
2023/05/10 11:51:35;;;;;;;8.20;5.20;;;15.50;1.00;;;;;;5036634;28;20046;-67
2023/05/10 11:54:09;;;;;;;9.57;5.40;;;15.40;1.00;;;;;;5042336;28;20033;-67
2023/05/10 11:56:35;;;;;;;9.83;6.20;;;15.30;5.50;;;;;;5049716;28;20449;-67
2023/05/10 11:59:02;;;;;;;8.65;5.75;;;15.50;1.00;;;;;;5040347;28;20737;-68
2023/05/10 12:01:28;;;;;;;10.35;6.25;;;15.60;1.00;;;;;;5043681;28;20041;-69
2023/05/10 12:03:58;;;;;;;11.65;5.93;;;15.60;1.00;;;;;;5040561;28;20048;-67
2023/05/10 12:06:27;;;;;;;9.75;6.18;;;15.70;1.00;;;;;;5045342;28;20073;-67
2023/05/10 12:08:53;;;;;;;9.60;5.28;;;16.00;99.90;;;;;;5037666;28;20049;-67
2023/05/10 12:11:21;;;;;;;10.05;6.45;;;16.80;99.90;;;;;;5046318;28;20463;-66
2023/05/10 12:13:47;;;;;;;10.05;7.18;;;16.90;99.90;;;;;;5046632;28;20157;-66
2023/05/10 12:16:21;;;;;;;10.13;6.18;;;17.20;99.90;;;;;;5040251;28;20037;-66
2023/05/10 12:18:54;;;;;;;;;;;17.00;74.50;;;;;;5021981;28;20037;-67
2023/05/10 12:21:20;;;;;;;10.60;5.20;;;17.20;1.00;;;;;;5049896;28;19963;-67
2023/05/10 12:23:49;;;;;;;10.82;6.55;;;17.10;99.90;;;;;;5051862;28;20051;-67
2023/05/10 12:26:15;;;;;;;10.90;6.85;;;17.10;99.90;;;;;;5041234;28;20072;-67
2023/05/10 12:28:40;;;;;;;10.75;6.47;;;16.80;99.90;;;;;;5051410;28;20037;-66
2023/05/10 12:31:06;;;;;;;9.68;5.95;;;16.30;99.90;;;;;;5043451;28;20136;-66
2023/05/10 12:33:41;;;;;;;11.10;5.45;;;16.50;99.90;;;;;;5046065;28;20044;-67
2023/05/10 12:36:07;;;;;;;10.23;6.22;;;15.90;1.00;;;;;;5037090;28;20048;-67
2023/05/10 12:38:34;;;;;;;12.38;7.78;;;16.70;99.90;;;;;;5051067;28;20041;-66
2023/05/10 12:41:02;;;;;;;9.57;5.93;;;16.80;1.00;;;;;;5050730;28;20132;-66
2023/05/10 12:43:28;;;;;;;13.98;6.95;;;16.80;1.00;;;;;;5053072;28;20040;-67
2023/05/10 12:45:54;;;;;;;9.93;5.50;;;17.20;99.90;;;;;;5043712;28;20045;-66
2023/05/10 12:48:20;;;;;;;9.10;3.90;;;17.50;99.90;;;;;;5040220;28;20041;-66
2023/05/10 12:50:46;;;;;;;8.57;3.55;;;17.50;99.90;;;;;;5044617;28;20041;-66